Time;durP1;ratioP1;P1;durP2;ratioP2;P2;SDS_P1;SDS_P2;PMS_P1;PMS_P2;Temp;Humidity;BMP_temperature;BMP_pressure;BME280_temperature;BME280_humidity;BME280_pressure;Samples;Min_cycle;Max_cycle;Signal;HPM_P1;HPM_P2
2023/06/19 00:01:12;;;;;;;10.73;9.63;;;24.10;70.90;;;;;;5034180;28;20477;-54
2023/06/19 00:03:58;;;;;;;11.05;10.05;;;24.10;70.90;;;;;;5033767;28;20034;-56
2023/06/19 00:06:44;;;;;;;11.07;9.98;;;24.10;70.90;;;;;;5036236;28;20038;-52
2023/06/19 00:09:30;;;;;;;10.80;9.70;;;24.10;71.00;;;;;;5036199;28;20077;-51
2023/06/19 00:12:16;;;;;;;10.65;9.65;;;24.10;71.00;;;;;;5037166;28;20402;-55
2023/06/19 00:15:02;;;;;;;11.02;9.93;;;24.10;71.20;;;;;;5033005;28;20458;-55
2023/06/19 00:17:48;;;;;;;12.50;9.95;;;24.00;71.20;;;;;;5032099;28;20037;-54
2023/06/19 00:20:36;;;;;;;10.27;9.30;;;24.00;71.50;;;;;;5033696;28;20034;-56
2023/06/19 00:23:22;;;;;;;12.15;9.80;;;23.80;71.60;;;;;;5029723;28;20030;-53
2023/06/19 00:26:08;;;;;;;10.00;9.10;;;23.90;71.70;;;;;;5013688;28;20069;-52
2023/06/19 00:28:54;;;;;;;11.05;9.95;;;23.80;71.80;;;;;;5014980;28;20030;-53
2023/06/19 00:31:40;;;;;;;10.80;9.90;;;23.80;72.00;;;;;;5032268;28;20044;-56
2023/06/19 00:34:29;;;;;;;10.80;9.70;;;23.70;72.10;;;;;;5031750;28;20032;-52
2023/06/19 00:37:15;;;;;;;11.02;10.02;;;23.70;72.30;;;;;;5033401;28;20044;-55
2023/06/19 00:40:01;;;;;;;10.70;9.60;;;23.70;72.30;;;;;;5033060;28;20069;-52
2023/06/19 00:42:46;;;;;;;10.85;9.85;;;23.80;72.30;;;;;;5037967;28;20033;-52
2023/06/19 00:45:32;;;;;;;10.80;9.80;;;23.70;72.40;;;;;;5032977;28;20083;-54
2023/06/19 00:48:18;;;;;;;11.10;10.00;;;23.70;72.50;;;;;;5031785;28;20025;-53
2023/06/19 00:51:04;;;;;;;10.27;9.38;;;23.80;72.40;;;;;;5032713;28;20033;-55
2023/06/19 00:53:50;;;;;;;10.68;9.77;;;23.80;72.50;;;;;;5022500;28;20042;-55
2023/06/19 00:56:39;;;;;;;11.10;10.02;;;23.80;72.70;;;;;;5013909;28;20133;-57
2023/06/19 00:59:26;;;;;;;10.73;9.75;;;23.70;72.80;;;;;;5013822;28;20092;-55
2023/06/19 01:02:12;;;;;;;11.35;10.25;;;23.80;72.80;;;;;;5014754;28;20076;-56
2023/06/19 01:04:58;;;;;;;10.60;9.60;;;23.80;72.90;;;;;;5033200;28;20033;-55
2023/06/19 01:07:56;;;;;;;11.25;10.23;;;23.70;73.00;;;;;;5026250;28;20022;-53
2023/06/19 01:10:47;;;;;;;10.90;9.82;;;23.80;73.20;;;;;;5014089;28;20029;-52
2023/06/19 01:13:50;;;;;;;11.05;10.05;;;23.70;73.30;;;;;;5015300;28;20490;-52
2023/06/19 01:16:37;;;;;;;11.48;10.40;;;23.50;73.80;;;;;;5021687;28;20025;-54
2023/06/19 01:19:25;;;;;;;11.20;10.10;;;23.50;74.10;;;;;;5027918;28;20144;-54
2023/06/19 01:22:25;;;;;;;10.55;9.65;;;23.50;74.30;;;;;;5033851;28;20482;-52
2023/06/19 01:25:13;;;;;;;11.75;10.63;;;23.50;74.30;;;;;;5023459;28;20684;-51
2023/06/19 01:27:59;;;;;;;12.07;10.82;;;23.40;74.50;;;;;;5011258;28;20415;-54
2023/06/19 01:30:46;;;;;;;13.95;12.00;;;23.40;74.70;;;;;;5013255;28;20036;-54
2023/06/19 01:33:36;;;;;;;12.35;11.25;;;23.30;74.80;;;;;;5013456;28;20018;-56
2023/06/19 01:36:24;;;;;;;12.65;11.48;;;23.30;74.90;;;;;;5017728;28;20032;-56
2023/06/19 01:39:11;;;;;;;11.50;10.45;;;23.30;75.00;;;;;;5029210;28;20286;-54
2023/06/19 01:41:59;;;;;;;12.15;10.98;;;23.30;75.30;;;;;;5032578;28;20030;-54
2023/06/19 01:44:45;;;;;;;10.65;9.65;;;23.20;75.90;;;;;;5029964;28;20026;-55
2023/06/19 01:47:31;;;;;;;13.65;11.07;;;23.20;75.40;;;;;;5031478;28;20116;-56
2023/06/19 01:50:17;;;;;;;12.30;11.05;;;23.20;75.40;;;;;;5030129;28;20109;-54
2023/06/19 01:53:03;;;;;;;11.60;10.50;;;23.20;75.60;;;;;;5013519;28;20033;-55
2023/06/19 01:55:49;;;;;;;11.80;10.60;;;23.10;75.70;;;;;;5014375;28;20105;-53
2023/06/19 01:58:35;;;;;;;11.68;10.57;;;23.10;75.90;;;;;;5011584;28;20490;-52
2023/06/19 02:01:21;;;;;;;11.32;10.23;;;23.10;76.10;;;;;;5015040;28;20095;-51
2023/06/19 02:04:06;;;;;;;10.70;9.70;;;23.00;76.30;;;;;;5031529;28;20025;-53
2023/06/19 02:06:52;;;;;;;10.82;9.80;;;23.00;76.30;;;;;;5031147;28;20485;-51
2023/06/19 02:09:39;;;;;;;13.00;10.63;;;23.00;76.50;;;;;;5031457;28;20395;-53
2023/06/19 02:12:25;;;;;;;11.55;10.45;;;22.90;76.70;;;;;;5030453;28;20026;-53
2023/06/19 02:15:11;;;;;;;11.30;10.20;;;22.90;76.80;;;;;;5015142;28;20414;-55
2023/06/19 02:17:57;;;;;;;11.45;10.35;;;22.90;77.00;;;;;;5028443;28;20135;-55
2023/06/19 02:20:43;;;;;;;11.23;10.13;;;22.90;77.20;;;;;;5032523;28;20026;-56
2023/06/19 02:23:29;;;;;;;11.70;10.48;;;22.90;77.10;;;;;;5032069;28;20033;-52
2023/06/19 02:26:14;;;;;;;11.40;10.35;;;22.90;77.30;;;;;;5029358;28;20117;-56
2023/06/19 02:29:00;;;;;;;12.25;11.05;;;22.80;77.50;;;;;;5030348;28;20083;-51
2023/06/19 02:31:46;;;;;;;11.27;10.25;;;22.70;77.70;;;;;;5031694;28;20025;-50
2023/06/19 02:34:33;;;;;;;11.85;10.65;;;22.70;77.90;;;;;;5030939;28;20034;-51
2023/06/19 02:37:19;;;;;;;11.32;10.07;;;22.70;78.00;;;;;;5030216;28;20560;-51
2023/06/19 02:40:06;;;;;;;11.40;10.30;;;22.70;78.20;;;;;;5032953;28;20057;-51
2023/06/19 02:42:52;;;;;;;12.07;10.75;;;22.70;78.20;;;;;;5030205;28;20615;-53
2023/06/19 02:45:40;;;;;;;11.15;10.15;;;22.70;78.10;;;;;;5030679;28;20030;-50
2023/06/19 02:48:27;;;;;;;11.63;10.43;;;22.80;78.10;;;;;;5014100;28;20513;-55
2023/06/19 02:51:13;;;;;;;11.85;10.73;;;22.80;77.80;;;;;;5015851;28;20123;-53
2023/06/19 02:53:59;;;;;;;11.25;10.15;;;22.80;77.80;;;;;;5012696;28;20030;-53
2023/06/19 02:56:45;;;;;;;12.48;10.82;;;22.70;77.90;;;;;;5011290;28;20030;-50
2023/06/19 02:59:31;;;;;;;12.05;10.85;;;22.60;78.10;;;;;;5030439;28;20030;-50
2023/06/19 03:02:17;;;;;;;11.50;10.40;;;22.60;78.10;;;;;;5030555;28;20568;-54
2023/06/19 03:05:03;;;;;;;11.52;10.52;;;22.60;78.20;;;;;;5019470;28;20445;-51
2023/06/19 03:07:49;;;;;;;11.38;10.27;;;22.60;78.40;;;;;;5015838;28;20403;-54
2023/06/19 03:10:35;;;;;;;11.52;10.43;;;22.60;78.70;;;;;;5015879;28;20398;-51
2023/06/19 03:13:21;;;;;;;12.52;11.07;;;22.60;78.80;;;;;;5014886;28;20498;-54
2023/06/19 03:16:07;;;;;;;11.57;10.43;;;22.60;79.00;;;;;;5017004;28;20030;-53
2023/06/19 03:18:52;;;;;;;11.43;10.23;;;22.50;79.80;;;;;;5029254;28;20049;-54
2023/06/19 03:21:38;;;;;;;11.68;10.38;;;22.50;80.20;;;;;;5035204;28;20029;-53
2023/06/19 03:24:26;;;;;;;11.50;10.30;;;22.50;79.60;;;;;;5029711;28;20113;-50
2023/06/19 03:27:11;;;;;;;10.65;9.68;;;22.60;79.30;;;;;;5014893;28;20033;-49
2023/06/19 03:29:57;;;;;;;12.05;10.93;;;22.60;79.20;;;;;;5015121;28;20503;-52
2023/06/19 03:32:43;;;;;;;11.40;10.30;;;22.60;79.20;;;;;;5015138;28;20391;-50
2023/06/19 03:35:29;;;;;;;11.10;9.95;;;22.70;79.20;;;;;;5014846;28;20026;-53
2023/06/19 03:38:16;;;;;;;11.60;10.43;;;22.70;79.00;;;;;;5015271;28;20038;-52
2023/06/19 03:41:02;;;;;;;11.18;10.07;;;22.70;79.00;;;;;;5015710;28;20038;-55
2023/06/19 03:43:48;;;;;;;11.70;10.60;;;22.70;79.10;;;;;;5016467;28;20557;-50
2023/06/19 03:46:34;;;;;;;11.70;10.60;;;22.70;78.80;;;;;;5013706;28;20434;-52
2023/06/19 03:49:20;;;;;;;12.48;11.38;;;22.70;79.00;;;;;;5029618;28;20114;-50
2023/06/19 03:52:06;;;;;;;16.27;10.35;;;22.70;79.10;;;;;;5034169;28;20025;-49
2023/06/19 03:54:52;;;;;;;11.48;10.43;;;22.70;79.30;;;;;;5035292;28;20017;-54
2023/06/19 03:57:38;;;;;;;11.75;10.65;;;22.70;79.30;;;;;;5019457;28;20450;-51
2023/06/19 04:00:24;;;;;;;13.32;9.73;;;22.60;79.30;;;;;;5014866;28;20049;-52
2023/06/19 04:03:10;;;;;;;14.65;10.73;;;22.60;79.50;;;;;;5015068;28;20038;-53
2023/06/19 04:05:56;;;;;;;11.68;10.57;;;22.60;79.50;;;;;;5031951;28;20061;-51
2023/06/19 04:08:42;;;;;;;11.27;10.18;;;22.60;79.60;;;;;;5033863;28;20138;-51
2023/06/19 04:11:27;;;;;;;11.38;10.27;;;22.60;79.60;;;;;;5038727;28;20397;-55
2023/06/19 04:14:13;;;;;;;12.07;10.77;;;22.60;80.40;;;;;;5035044;28;20494;-52
2023/06/19 04:16:59;;;;;;;11.07;10.07;;;22.50;79.90;;;;;;5033181;28;20034;-49
2023/06/19 04:19:45;;;;;;;12.23;10.98;;;22.50;80.10;;;;;;5033870;28;20498;-53
2023/06/19 04:22:31;;;;;;;11.57;10.48;;;22.60;79.90;;;;;;5034084;28;20094;-54
2023/06/19 04:25:18;;;;;;;11.75;10.55;;;22.60;80.10;;;;;;5033145;28;20069;-53
2023/06/19 04:28:04;;;;;;;11.23;10.13;;;22.60;80.00;;;;;;5031659;28;20028;-55
2023/06/19 04:30:49;;;;;;;11.82;10.70;;;22.60;80.20;;;;;;5033369;28;20399;-51
2023/06/19 04:33:36;;;;;;;11.43;10.40;;;22.60;80.20;;;;;;5014478;28;20030;-55
2023/06/19 04:36:22;;;;;;;11.73;10.73;;;22.60;80.20;;;;;;5013151;28;20391;-54
2023/06/19 04:39:09;;;;;;;11.80;10.68;;;22.60;80.10;;;;;;5013788;28;20092;-53
2023/06/19 04:41:55;;;;;;;11.95;10.80;;;22.70;80.20;;;;;;5029482;28;20030;-52
2023/06/19 04:44:41;;;;;;;12.43;11.02;;;22.70;80.20;;;;;;5031749;28;20437;-51
2023/06/19 04:47:27;;;;;;;12.20;10.50;;;22.80;80.10;;;;;;5019708;28;20479;-52
2023/06/19 04:50:13;;;;;;;12.18;10.95;;;22.80;80.20;;;;;;5013920;28;20188;-51
2023/06/19 04:52:59;;;;;;;12.10;11.00;;;22.80;80.20;;;;;;5020964;28;20033;-50
2023/06/19 04:55:45;;;;;;;11.43;10.25;;;22.80;80.20;;;;;;5037566;28;20022;-49
2023/06/19 04:58:31;;;;;;;14.95;11.30;;;22.80;80.40;;;;;;5033952;28;20456;-53
2023/06/19 05:01:17;;;;;;;12.02;10.90;;;22.80;80.20;;;;;;5034020;28;20443;-51
2023/06/19 05:04:03;;;;;;;12.80;11.25;;;22.80;80.40;;;;;;5029816;28;20049;-53
2023/06/19 05:06:50;;;;;;;15.77;11.80;;;22.80;80.60;;;;;;5012795;28;20033;-54
2023/06/19 05:09:36;;;;;;;21.08;18.40;;;22.70;80.90;;;;;;5013724;28;20022;-53
2023/06/19 05:12:22;;;;;;;17.92;16.10;;;22.70;81.40;;;;;;5033664;28;20678;-52
2023/06/19 05:15:09;;;;;;;14.50;13.10;;;22.60;82.20;;;;;;5031220;28;20040;-53
2023/06/19 05:17:55;;;;;;;12.38;11.07;;;22.60;82.20;;;;;;5031828;28;20034;-54
2023/06/19 05:20:41;;;;;;;12.65;11.43;;;22.60;81.90;;;;;;5030834;28;20033;-52
2023/06/19 05:23:27;;;;;;;11.95;10.75;;;22.60;81.40;;;;;;5026718;28;20034;-50
2023/06/19 05:26:13;;;;;;;12.57;11.02;;;22.60;81.60;;;;;;5024290;28;20405;-53
2023/06/19 05:28:59;;;;;;;12.77;11.38;;;22.50;81.80;;;;;;5033973;28;20034;-53
2023/06/19 05:31:45;;;;;;;14.15;12.02;;;22.50;82.00;;;;;;5032420;28;20030;-55
2023/06/19 05:34:31;;;;;;;15.50;11.38;;;22.40;81.80;;;;;;5032959;28;20583;-55
2023/06/19 05:37:17;;;;;;;12.57;11.35;;;22.30;82.50;;;;;;5033053;28;20060;-52
2023/06/19 05:40:03;;;;;;;14.25;11.07;;;22.20;82.40;;;;;;5028377;28;20022;-51
2023/06/19 05:42:49;;;;;;;14.15;12.15;;;22.20;82.80;;;;;;5034124;28;20041;-55
2023/06/19 05:45:35;;;;;;;13.77;12.07;;;22.20;83.10;;;;;;5021171;28;20058;-54
2023/06/19 05:48:21;;;;;;;14.15;12.70;;;22.20;84.00;;;;;;5013251;28;20422;-52
2023/06/19 05:51:07;;;;;;;24.48;18.38;;;22.20;83.80;;;;;;5025051;28;20503;-56
2023/06/19 05:53:53;;;;;;;25.40;20.20;;;22.10;84.30;;;;;;5031365;28;20103;-56
2023/06/19 05:56:39;;;;;;;26.50;23.65;;;22.10;84.40;;;;;;5030840;28;20486;-54
2023/06/19 05:59:25;;;;;;;26.70;22.42;;;22.20;84.40;;;;;;5032390;28;20452;-53
2023/06/19 06:02:11;;;;;;;19.63;15.32;;;22.30;84.20;;;;;;5031561;28;20040;-55
2023/06/19 06:04:57;;;;;;;14.82;12.40;;;22.40;83.70;;;;;;5032090;28;20177;-55
2023/06/19 06:07:43;;;;;;;15.68;13.98;;;22.30;83.50;;;;;;5031222;28;20037;-51
2023/06/19 06:10:29;;;;;;;20.35;12.48;;;22.20;83.70;;;;;;5032053;28;20021;-55
2023/06/19 06:13:15;;;;;;;22.02;12.98;;;22.10;84.10;;;;;;5012588;28;20045;-52
2023/06/19 06:16:01;;;;;;;15.43;12.35;;;22.10;84.50;;;;;;5015098;28;20113;-52
2023/06/19 06:18:47;;;;;;;20.05;12.50;;;21.90;84.80;;;;;;5027872;28;20037;-53
2023/06/19 06:21:34;;;;;;;15.10;12.32;;;22.00;85.10;;;;;;5030545;28;20087;-54
2023/06/19 06:24:20;;;;;;;18.38;12.02;;;22.10;85.00;;;;;;5029023;28;20022;-51
2023/06/19 06:27:06;;;;;;;16.67;13.05;;;22.10;84.90;;;;;;5033340;28;20034;-54
2023/06/19 06:29:52;;;;;;;16.52;12.73;;;22.10;85.10;;;;;;5031762;28;20065;-55
2023/06/19 06:32:38;;;;;;;16.13;13.75;;;22.10;85.30;;;;;;5028245;28;20025;-56
2023/06/19 06:35:24;;;;;;;13.13;11.82;;;22.20;85.30;;;;;;5033963;28;20034;-53
2023/06/19 06:38:10;;;;;;;15.45;13.85;;;21.90;87.40;;;;;;5019910;28;20040;-53
2023/06/19 06:40:56;;;;;;;14.73;13.23;;;21.80;88.20;;;;;;5015265;28;20105;-50
2023/06/19 06:43:42;;;;;;;27.48;19.05;;;21.80;89.00;;;;;;5016587;28;20457;-50
2023/06/19 06:46:28;;;;;;;35.67;31.00;;;21.90;88.70;;;;;;5035275;28;20493;-49
2023/06/19 06:49:16;;;;;;;32.67;28.02;;;22.00;88.90;;;;;;5037505;28;20080;-51
2023/06/19 06:52:05;;;;;;;18.92;16.60;;;22.10;88.50;;;;;;5035389;28;20402;-50
2023/06/19 06:54:51;;;;;;;27.25;18.30;;;22.10;88.50;;;;;;5029924;28;20038;-52
2023/06/19 06:57:37;;;;;;;18.25;14.05;;;22.10;88.90;;;;;;5036146;28;20037;-52
2023/06/19 07:00:23;;;;;;;33.95;25.83;;;22.20;88.70;;;;;;5020939;28;20029;-50
2023/06/19 07:03:09;;;;;;;36.30;28.92;;;22.30;88.40;;;;;;5024369;28;20030;-51
2023/06/19 07:05:55;;;;;;;19.48;16.30;;;22.40;89.00;;;;;;5017747;28;20032;-53
2023/06/19 07:08:41;;;;;;;19.50;15.43;;;22.50;87.90;;;;;;5035296;28;20112;-49
2023/06/19 07:11:27;;;;;;;18.58;15.18;;;22.70;87.60;;;;;;5029534;28;20080;-51
2023/06/19 07:14:13;;;;;;;19.45;15.48;;;22.80;87.20;;;;;;5024048;28;20052;-51
2023/06/19 07:16:59;;;;;;;18.27;14.98;;;22.80;86.80;;;;;;5027677;28;20114;-52
2023/06/19 07:19:45;;;;;;;20.55;18.33;;;22.80;87.30;;;;;;5034280;28;20030;-53
2023/06/19 07:22:31;;;;;;;25.27;19.73;;;23.00;87.20;;;;;;5028797;28;20479;-55
2023/06/19 07:25:17;;;;;;;20.58;15.70;;;23.10;86.80;;;;;;5022436;28;20038;-53
2023/06/19 07:28:04;;;;;;;17.98;15.38;;;23.20;86.40;;;;;;5028590;28;20429;-52
2023/06/19 07:30:52;;;;;;;28.05;15.48;;;23.20;86.50;;;;;;5029546;28;20029;-51
2023/06/19 07:33:38;;;;;;;69.55;21.75;;;23.30;87.20;;;;;;5028183;28;20379;-51
2023/06/19 07:36:24;;;;;;;77.47;21.95;;;23.40;86.80;;;;;;5032322;28;20040;-54
2023/06/19 07:39:10;;;;;;;69.57;22.58;;;23.40;86.90;;;;;;5033199;28;20026;-50
2023/06/19 07:41:56;;;;;;;82.53;23.92;;;23.50;86.90;;;;;;5033017;28;20502;-52
2023/06/19 07:44:43;;;;;;;83.70;24.80;;;23.50;87.00;;;;;;5032682;28;20041;-52
2023/06/19 07:47:29;;;;;;;24.35;15.30;;;23.60;87.00;;;;;;5030668;28;20033;-54
2023/06/19 07:50:15;;;;;;;22.30;15.38;;;23.60;86.60;;;;;;5034502;28;20033;-51
2023/06/19 07:53:01;;;;;;;48.25;18.33;;;23.50;86.70;;;;;;5027469;28;20041;-49
2023/06/19 07:55:47;;;;;;;35.20;17.10;;;23.50;87.10;;;;;;5032856;28;20037;-50
2023/06/19 07:58:33;;;;;;;54.80;23.75;;;23.60;87.50;;;;;;5031193;28;20045;-51
2023/06/19 08:01:19;;;;;;;74.00;28.48;;;23.80;86.70;;;;;;5015535;28;20029;-53
2023/06/19 08:04:04;;;;;;;86.00;25.00;;;24.00;86.30;;;;;;5015895;28;20030;-51
2023/06/19 08:06:51;;;;;;;52.17;21.95;;;24.30;85.80;;;;;;5023902;28;20037;-50
2023/06/19 08:09:36;;;;;;;27.95;18.17;;;24.40;85.50;;;;;;5026573;28;20083;-50
2023/06/19 08:12:22;;;;;;;33.58;17.25;;;24.60;85.20;;;;;;5013992;28;20105;-51
2023/06/19 08:15:09;;;;;;;42.90;19.52;;;24.70;85.10;;;;;;5014976;28;20467;-49
2023/06/19 08:17:55;;;;;;;53.33;24.05;;;25.00;84.60;;;;;;5014487;28;20096;-52
2023/06/19 08:20:41;;;;;;;45.78;20.55;;;25.20;84.10;;;;;;5027158;28;20061;-51
2023/06/19 08:23:27;;;;;;;33.67;15.50;;;25.40;83.90;;;;;;5032294;28;20133;-50
2023/06/19 08:26:13;;;;;;;52.58;18.13;;;25.60;83.30;;;;;;5014765;28;20045;-53
2023/06/19 08:28:59;;;;;;;29.75;15.80;;;25.90;83.30;;;;;;5019608;28;20054;-53
2023/06/19 08:31:45;;;;;;;19.15;14.10;;;26.10;83.10;;;;;;5024746;28;20076;-54
2023/06/19 08:34:31;;;;;;;17.20;15.32;;;26.00;81.70;;;;;;5040231;28;20028;-54
2023/06/19 08:37:18;;;;;;;18.77;14.73;;;25.80;81.60;;;;;;5040656;28;20025;-52
2023/06/19 08:40:09;;;;;;;16.40;14.00;;;25.60;82.10;;;;;;5013756;28;20058;-52
2023/06/19 08:42:55;;;;;;;16.55;14.48;;;25.40;82.10;;;;;;5012604;28;20037;-51
2023/06/19 08:45:41;;;;;;;15.07;13.57;;;25.40;82.40;;;;;;5022117;28;20398;-56
2023/06/19 08:48:27;;;;;;;16.67;14.65;;;25.40;82.40;;;;;;5033413;28;20025;-54
2023/06/19 08:51:16;;;;;;;15.85;14.32;;;25.40;81.30;;;;;;5034188;28;20045;-54
2023/06/19 08:54:06;;;;;;;44.85;22.20;;;25.50;81.50;;;;;;5033196;28;20441;-56
2023/06/19 08:56:53;;;;;;;18.48;15.80;;;25.70;81.40;;;;;;5033864;28;20401;-55
2023/06/19 08:59:41;;;;;;;18.08;16.20;;;25.90;81.00;;;;;;5033342;28;20025;-56
2023/06/19 09:02:37;;;;;;;20.52;16.02;;;26.10;80.90;;;;;;5026031;28;20480;-55
2023/06/19 09:05:23;;;;;;;15.32;13.82;;;26.20;80.60;;;;;;5016545;28;20033;-53
2023/06/19 09:08:13;;;;;;;14.88;13.32;;;26.40;80.10;;;;;;5014309;28;20407;-55
2023/06/19 09:11:01;;;;;;;17.23;12.82;;;26.50;79.30;;;;;;5013948;28;20076;-55
2023/06/19 09:13:56;;;;;;;13.10;11.70;;;26.80;78.70;;;;;;5013639;28;20061;-56
2023/06/19 09:16:42;;;;;;;15.45;12.52;;;27.10;77.90;;;;;;5013019;28;20080;-56
2023/06/19 09:19:29;;;;;;;13.02;11.90;;;27.30;76.80;;;;;;5014558;28;20049;-53
2023/06/19 09:22:20;;;;;;;14.23;11.85;;;27.30;76.40;;;;;;5013841;28;20109;-56
2023/06/19 09:25:09;;;;;;;13.20;11.60;;;27.30;75.40;;;;;;5018539;28;20594;-54
2023/06/19 09:27:56;;;;;;;13.75;11.52;;;27.30;74.00;;;;;;5028305;28;20510;-52
2023/06/19 09:30:58;;;;;;;13.30;12.00;;;27.20;73.80;;;;;;5033022;28;20413;-53
2023/06/19 09:33:44;;;;;;;12.55;10.65;;;27.10;73.20;;;;;;5014120;28;20026;-54
2023/06/19 09:36:32;;;;;;;13.52;12.13;;;27.00;74.30;;;;;;5026576;28;20052;-52
2023/06/19 09:39:19;;;;;;;13.68;12.27;;;26.90;73.70;;;;;;5033005;28;20021;-56
2023/06/19 09:42:10;;;;;;;13.57;12.05;;;26.90;73.20;;;;;;5026676;28;20448;-56
2023/06/19 09:45:04;;;;;;;17.10;12.80;;;26.90;73.30;;;;;;5017726;28;20026;-53
2023/06/19 09:47:53;;;;;;;16.80;13.98;;;27.30;74.20;;;;;;5045401;28;20140;-52
2023/06/19 09:50:40;;;;;;;14.55;13.05;;;27.30;74.70;;;;;;5030715;28;20116;-52
2023/06/19 09:53:27;;;;;;;17.38;13.50;;;27.30;73.70;;;;;;5030962;28;20030;-51
2023/06/19 09:56:14;;;;;;;15.20;13.70;;;27.40;73.40;;;;;;5013038;28;20040;-49
2023/06/19 09:59:00;;;;;;;15.40;13.65;;;27.50;73.80;;;;;;5012962;28;20037;-50
2023/06/19 10:01:46;;;;;;;16.35;14.65;;;27.60;74.00;;;;;;5012859;28;20034;-50
2023/06/19 10:04:46;;;;;;;16.08;14.38;;;27.40;74.40;;;;;;5027040;28;20108;-50
2023/06/19 10:07:36;;;;;;;17.73;14.40;;;27.30;75.30;;;;;;5019740;28;20038;-50
2023/06/19 10:10:23;;;;;;;15.35;13.50;;;27.40;75.40;;;;;;5013564;28;20050;-51
2023/06/19 10:13:15;;;;;;;15.10;13.40;;;27.40;75.00;;;;;;5030978;28;20021;-51
2023/06/19 10:16:01;;;;;;;15.48;13.70;;;27.60;73.60;;;;;;5032782;28;20300;-52
2023/06/19 10:18:48;;;;;;;17.27;13.95;;;27.80;73.70;;;;;;5029374;28;20434;-49
2023/06/19 10:21:45;;;;;;;16.15;14.45;;;27.90;71.80;;;;;;5013083;28;20049;-51
2023/06/19 10:24:32;;;;;;;14.80;13.48;;;28.00;71.60;;;;;;5012170;28;20034;-50
2023/06/19 10:27:22;;;;;;;16.35;14.23;;;27.90;72.80;;;;;;5015762;28;20034;-50
2023/06/19 10:30:18;;;;;;;19.10;13.20;;;27.80;72.10;;;;;;5015446;28;20030;-49
2023/06/19 10:33:04;;;;;;;14.52;13.05;;;28.00;71.30;;;;;;5014659;28;20498;-52
2023/06/19 10:35:50;;;;;;;14.68;13.27;;;28.20;71.30;;;;;;5014276;28;20113;-53
2023/06/19 10:38:36;;;;;;;15.00;13.40;;;28.60;70.50;;;;;;5028861;28;20057;-55
2023/06/19 10:41:27;;;;;;;14.40;13.00;;;29.00;69.20;;;;;;5029791;28;20041;-53
2023/06/19 10:44:14;;;;;;;17.55;14.27;;;29.00;69.60;;;;;;5025801;28;20103;-57
2023/06/19 10:47:01;;;;;;;15.52;13.93;;;29.00;69.50;;;;;;5012417;28;20109;-51
2023/06/19 10:49:48;;;;;;;18.63;13.27;;;28.90;69.30;;;;;;5031146;28;20030;-53
2023/06/19 10:52:34;;;;;;;14.43;12.70;;;28.60;69.30;;;;;;5025353;28;20108;-53
2023/06/19 10:55:20;;;;;;;14.50;13.13;;;28.60;70.10;;;;;;5018522;28;20033;-52
2023/06/19 10:58:06;;;;;;;14.85;13.18;;;28.40;70.40;;;;;;5023502;28;20053;-53
2023/06/19 11:00:52;;;;;;;13.88;12.45;;;28.50;71.20;;;;;;5025407;28;20034;-52
2023/06/19 11:03:38;;;;;;;14.48;13.05;;;28.40;69.70;;;;;;5020879;28;20037;-51
2023/06/19 11:06:24;;;;;;;14.57;13.07;;;28.60;69.50;;;;;;5029159;28;20025;-53
2023/06/19 11:09:13;;;;;;;15.30;13.88;;;28.70;69.90;;;;;;5032612;28;20034;-52
2023/06/19 11:12:00;;;;;;;14.73;13.25;;;28.90;68.80;;;;;;5030416;28;20026;-51
2023/06/19 11:14:50;;;;;;;13.63;12.23;;;28.90;68.80;;;;;;5014149;28;20026;-53
2023/06/19 11:17:36;;;;;;;13.65;12.07;;;28.90;69.10;;;;;;5013344;28;20051;-54
2023/06/19 11:20:22;;;;;;;12.85;11.65;;;29.10;65.60;;;;;;5034664;28;20183;-54
2023/06/19 11:23:08;;;;;;;12.88;11.68;;;29.10;66.80;;;;;;5034445;28;20561;-53
2023/06/19 11:25:57;;;;;;;13.40;12.07;;;29.20;66.20;;;;;;5033909;28;20550;-54
2023/06/19 11:28:48;;;;;;;13.48;12.15;;;29.20;66.60;;;;;;5034700;28;20132;-53
2023/06/19 11:31:34;;;;;;;17.00;11.75;;;29.20;64.80;;;;;;5016832;28;20049;-60
2023/06/19 11:34:30;;;;;;;14.65;11.77;;;29.20;64.50;;;;;;5026814;28;20026;-51
2023/06/19 11:37:18;;;;;;;13.85;12.13;;;29.40;65.30;;;;;;5015191;28;20030;-52
2023/06/19 11:40:10;;;;;;;17.05;13.68;;;29.50;65.50;;;;;;5015229;28;20037;-55
2023/06/19 11:42:56;;;;;;;13.88;11.75;;;29.70;65.60;;;;;;5015637;28;20080;-54
2023/06/19 11:45:48;;;;;;;13.55;12.15;;;29.70;65.20;;;;;;5032077;28;20101;-52
2023/06/19 11:48:37;;;;;;;12.48;11.38;;;30.00;63.70;;;;;;5031935;28;20434;-54
2023/06/19 11:51:23;;;;;;;14.02;12.35;;;29.60;63.50;;;;;;5020085;28;20025;-56
2023/06/19 11:54:11;;;;;;;12.52;11.43;;;29.40;63.60;;;;;;5017426;28;20035;-54
2023/06/19 11:56:57;;;;;;;12.48;11.38;;;29.40;64.00;;;;;;5032333;28;20502;-55
2023/06/19 11:59:43;;;;;;;13.88;10.80;;;29.60;63.80;;;;;;5015098;28;20048;-56
2023/06/19 12:02:29;;;;;;;14.18;11.68;;;29.70;63.00;;;;;;5016472;28;20428;-55
2023/06/19 12:05:15;;;;;;;13.15;11.80;;;29.80;63.10;;;;;;5033509;28;20040;-52
2023/06/19 12:08:02;;;;;;;13.10;11.88;;;29.90;63.10;;;;;;5033202;28;20037;-54
2023/06/19 12:10:49;;;;;;;13.13;11.93;;;29.80;63.00;;;;;;5034835;28;20030;-54
2023/06/19 12:13:35;;;;;;;13.77;12.38;;;30.10;62.70;;;;;;5033313;28;20490;-55
2023/06/19 12:16:21;;;;;;;14.40;12.90;;;30.20;63.20;;;;;;5033433;28;20386;-51
2023/06/19 12:19:07;;;;;;;13.73;12.38;;;30.30;63.00;;;;;;5035980;28;20049;-56
2023/06/19 12:21:53;;;;;;;13.05;11.75;;;30.50;62.30;;;;;;5015836;28;20060;-55
2023/06/19 12:24:39;;;;;;;14.38;12.95;;;30.50;63.00;;;;;;5015120;28;20088;-54
2023/06/19 12:27:25;;;;;;;13.80;12.40;;;30.60;63.60;;;;;;5014716;28;20077;-56
2023/06/19 12:30:11;;;;;;;14.05;12.13;;;30.50;63.70;;;;;;5013826;28;20045;-56
2023/06/19 12:32:58;;;;;;;14.32;13.02;;;30.50;63.90;;;;;;5014059;28;20080;-55
2023/06/19 12:35:45;;;;;;;13.65;12.25;;;30.50;63.80;;;;;;5015461;28;20033;-55
2023/06/19 12:38:31;;;;;;;13.50;12.23;;;30.70;62.40;;;;;;5026405;28;20034;-55
2023/06/19 12:41:17;;;;;;;13.43;12.18;;;30.70;62.00;;;;;;5013547;28;20029;-55
2023/06/19 12:44:03;;;;;;;12.57;11.43;;;31.00;61.90;;;;;;5014357;28;20057;-52
2023/06/19 12:46:49;;;;;;;12.88;11.75;;;31.00;62.50;;;;;;5025430;28;20100;-53
2023/06/19 12:49:35;;;;;;;13.18;11.80;;;31.10;62.70;;;;;;5033622;28;20104;-55
2023/06/19 12:52:21;;;;;;;12.02;11.00;;;31.10;62.60;;;;;;5033221;28;20502;-52
2023/06/19 12:55:07;;;;;;;11.98;10.75;;;31.30;62.20;;;;;;5033026;28;20461;-56
2023/06/19 12:57:53;;;;;;;12.45;11.38;;;31.30;62.10;;;;;;5032429;28;20113;-54
2023/06/19 13:00:39;;;;;;;15.05;11.90;;;31.20;62.50;;;;;;5034531;28;20056;-55
2023/06/19 13:03:25;;;;;;;15.02;12.20;;;31.30;63.50;;;;;;5033753;28;20080;-56
2023/06/19 13:06:11;;;;;;;12.98;11.77;;;31.20;64.00;;;;;;5032681;28;20029;-55
2023/06/19 13:08:57;;;;;;;12.02;11.02;;;31.20;63.50;;;;;;5033792;28;20057;-57
2023/06/19 13:11:43;;;;;;;11.70;10.60;;;31.40;63.70;;;;;;5034683;28;20049;-55
2023/06/19 13:14:31;;;;;;;11.55;10.45;;;31.00;63.20;;;;;;5034217;28;20045;-55
2023/06/19 13:17:18;;;;;;;12.13;11.10;;;30.90;63.60;;;;;;5031019;28;20100;-54
2023/06/19 13:20:05;;;;;;;11.73;10.57;;;30.90;64.30;;;;;;5028301;28;20022;-56
2023/06/19 13:22:52;;;;;;;13.52;11.40;;;31.00;63.90;;;;;;5016572;28;20026;-58
2023/06/19 13:25:38;;;;;;;13.55;10.93;;;30.90;63.90;;;;;;5013740;28;20026;-60
2023/06/19 13:28:24;;;;;;;12.80;11.50;;;30.60;64.80;;;;;;5012662;28;20038;-57
2023/06/19 13:31:10;;;;;;;12.20;10.93;;;30.40;64.60;;;;;;5013331;28;20030;-56
2023/06/19 13:33:56;;;;;;;12.05;10.95;;;30.30;64.40;;;;;;5013260;28;20030;-55
2023/06/19 13:36:42;;;;;;;11.70;10.70;;;30.30;64.80;;;;;;5013017;28;20038;-56
2023/06/19 13:39:28;;;;;;;10.55;9.57;;;30.40;66.00;;;;;;5029286;28;20040;-57
2023/06/19 13:42:14;;;;;;;9.80;8.98;;;30.30;66.50;;;;;;5033225;28;20037;-58
2023/06/19 13:45:00;;;;;;;10.10;9.10;;;30.20;66.30;;;;;;5032647;28;20029;-57
2023/06/19 13:47:46;;;;;;;8.70;7.90;;;30.00;66.80;;;;;;5031770;28;20029;-57
2023/06/19 13:50:32;;;;;;;9.98;8.27;;;30.00;66.60;;;;;;5033102;28;20029;-57
2023/06/19 13:53:19;;;;;;;9.07;8.27;;;30.00;66.90;;;;;;5012907;28;20136;-60
2023/06/19 13:56:05;;;;;;;8.77;8.05;;;30.00;66.80;;;;;;5017318;28;20036;-57
2023/06/19 13:58:51;;;;;;;9.13;8.32;;;30.00;67.70;;;;;;5013749;28;20038;-57
2023/06/19 14:01:37;;;;;;;8.80;7.95;;;30.10;68.50;;;;;;5019643;28;20025;-58
2023/06/19 14:04:22;;;;;;;9.20;8.30;;;30.10;69.40;;;;;;5031052;28;20417;-56
2023/06/19 14:07:08;;;;;;;8.73;7.93;;;30.10;69.70;;;;;;5030839;28;20025;-55